This is the latest recevied weather packets stored in our database for station/object WP3XM. If no packets are shown the sender has not sent any weather packets the latest 10 day(s).
| Time | Temp. | Humidity | Pressure | Rain* | Wind** | Luminosity | Snow |
|---|---|---|---|---|---|---|---|
| 1777839865 | 29.44° C | 68% | 1016.6 hPa | 0 mm | - | 454 W/m² | - |
| 1777839564 | 28.89° C | 68% | 1016.4 hPa | 0 mm | - | 444 W/m² | - |
| 1777839260 | 28.89° C | 70% | 1016.9 hPa | 0 mm | - | 473 W/m² | - |
| 1777838958 | 29.44° C | 67% | 1016.9 hPa | 0 mm | - | 188 W/m² | - |
| 1777838654 | 30° C | 65% | 1016.9 hPa | 0 mm | - | 552 W/m² | - |
| 1777838351 | 29.44° C | 66% | 1017 hPa | 0 mm | - | 532 W/m² | - |
| 1777838048 | 29.44° C | 64% | 1016.9 hPa | 0 mm | - | 576 W/m² | - |
| 1777837745 | 29.44° C | 68% | 1017.1 hPa | 0 mm | - | 597 W/m² | - |
| 1777837441 | 30° C | 66% | 1016.9 hPa | 0 mm | - | 124 W/m² | - |
| 1777837137 | 29.44° C | 66% | 1017.1 hPa | 0 mm | - | 625 W/m² | - |
| 1777836833 | 29.44° C | 67% | 1017.1 hPa | 0 mm | - | 624 W/m² | - |
| 1777836529 | 30° C | 65% | 1017 hPa | 0 mm | - | 236 W/m² | - |
| 1777836224 | 29.44° C | 67% | 1017.2 hPa | 0 mm | - | 675 W/m² | - |
| 1777835921 | 30° C | 65% | 1017.1 hPa | 0 mm | - | 676 W/m² | - |
| 1777835618 | 30° C | 65% | 1017.2 hPa | 0 mm | - | 731 W/m² | - |
| 1777835315 | 29.44° C | 66% | 1017.2 hPa | 0 mm | - | 717 W/m² | - |
| 1777835012 | 30° C | 63% | 1017.4 hPa | 0 mm | - | 762 W/m² | - |
| 1777834709 | 30° C | 64% | 1017.4 hPa | 0 mm | - | 775 W/m² | - |
| 1777834405 | 29.44° C | 65% | 1017.5 hPa | 0 mm | - | 695 W/m² | - |
| 1777834100 | 30° C | 63% | 1017.4 hPa | 0 mm | - | 193 W/m² | - |
| 1777833796 | 29.44° C | 63% | 1017.4 hPa | 0 mm | - | 363 W/m² | - |
| 1777833492 | 30.56° C | 64% | 1017.4 hPa | 0 mm | - | 187 W/m² | - |
| 1777833189 | 30° C | 64% | 1017.7 hPa | 0 mm | - | 870 W/m² | - |
| 1777832887 | 30° C | 64% | 1017.6 hPa | 0 mm | - | 908 W/m² | - |
| 1777832586 | 30° C | 63% | 1017.5 hPa | 0 mm | - | 848 W/m² | - |
* Rain latest hour (hover to see other rain measurements)
** Current wind speed in m/s (hover to see current wind gust speed)